sensor_id;sensor_type;location;lat;lon;timestamp;P1;durP1;ratioP1;P2;durP2;ratioP2
67675;SDS011;54456;48.436;10.028;2023-11-21T09:21:04;8.65;;;2.47;;
67675;SDS011;54456;48.436;10.028;2023-11-21T09:22:35;8.00;;;2.50;;
67675;SDS011;54456;48.436;10.028;2023-11-21T09:24:05;5.80;;;2.20;;
67675;SDS011;54456;48.436;10.028;2023-11-21T09:25:36;7.82;;;2.50;;
67675;SDS011;54456;48.436;10.028;2023-11-21T09:27:07;6.15;;;2.60;;
67675;SDS011;54456;48.436;10.028;2023-11-21T09:28:37;6.50;;;2.13;;
67675;SDS011;54456;48.436;10.028;2023-11-21T09:30:08;7.18;;;2.47;;
67675;SDS011;54456;48.436;10.028;2023-11-21T09:31:41;7.13;;;2.22;;
67675;SDS011;54456;48.436;10.028;2023-11-21T09:33:12;6.68;;;2.13;;
67675;SDS011;54456;48.436;10.028;2023-11-21T09:34:42;6.33;;;2.40;;
67675;SDS011;54456;48.436;10.028;2023-11-21T09:36:12;6.80;;;2.30;;
67675;SDS011;54456;48.436;10.028;2023-11-21T09:37:46;6.22;;;2.30;;
67675;SDS011;54456;48.436;10.028;2023-11-21T09:39:16;6.25;;;2.38;;
67675;SDS011;54456;48.436;10.028;2023-11-21T09:40:48;6.38;;;2.30;;
67675;SDS011;54456;48.436;10.028;2023-11-21T09:42:25;6.65;;;2.40;;
67675;SDS011;54456;48.436;10.028;2023-11-21T09:44:00;6.75;;;2.20;;
67675;SDS011;54456;48.436;10.028;2023-11-21T09:45:33;6.78;;;2.25;;
67675;SDS011;54456;48.436;10.028;2023-11-21T09:47:05;6.75;;;1.95;;
67675;SDS011;54456;48.436;10.028;2023-11-21T09:48:40;3.78;;;1.70;;
67675;SDS011;54456;48.436;10.028;2023-11-21T09:50:11;4.35;;;1.48;;
67675;SDS011;54456;48.436;10.028;2023-11-21T09:51:42;4.28;;;1.52;;
67675;SDS011;54456;48.436;10.028;2023-11-21T09:53:20;5.07;;;1.70;;
67675;SDS011;54456;48.436;10.028;2023-11-21T09:54:52;6.10;;;2.08;;
67675;SDS011;54456;48.436;10.028;2023-11-21T09:56:28;6.47;;;2.10;;
67675;SDS011;54456;48.436;10.028;2023-11-21T09:58:01;4.25;;;1.55;;
67675;SDS011;54456;48.436;10.028;2023-11-21T09:59:32;4.07;;;1.65;;
67675;SDS011;54456;48.436;10.028;2023-11-21T10:01:03;3.22;;;1.48;;
67675;SDS011;54456;48.436;10.028;2023-11-21T10:02:33;4.85;;;1.83;;
67675;SDS011;54456;48.436;10.028;2023-11-21T10:04:06;5.78;;;1.73;;
67675;SDS011;54456;48.436;10.028;2023-11-21T10:05:42;4.32;;;1.50;;
67675;SDS011;54456;48.436;10.028;2023-11-21T10:07:14;4.82;;;1.50;;
67675;SDS011;54456;48.436;10.028;2023-11-21T10:08:47;4.20;;;1.48;;
67675;SDS011;54456;48.436;10.028;2023-11-21T10:10:19;4.60;;;1.63;;
67675;SDS011;54456;48.436;10.028;2023-11-21T10:11:51;5.15;;;1.80;;
67675;SDS011;54456;48.436;10.028;2023-11-21T10:13:22;7.10;;;2.10;;
67675;SDS011;54456;48.436;10.028;2023-11-21T10:14:52;4.93;;;1.90;;
67675;SDS011;54456;48.436;10.028;2023-11-21T10:16:26;4.88;;;1.80;;
67675;SDS011;54456;48.436;10.028;2023-11-21T10:17:57;4.82;;;1.70;;
67675;SDS011;54456;48.436;10.028;2023-11-21T10:19:27;6.40;;;2.90;;
67675;SDS011;54456;48.436;10.028;2023-11-21T10:20:58;8.10;;;3.10;;
67675;SDS011;54456;48.436;10.028;2023-11-21T10:22:29;7.00;;;2.70;;
67675;SDS011;54456;48.436;10.028;2023-11-21T10:23:59;7.47;;;3.10;;
67675;SDS011;54456;48.436;10.028;2023-11-21T10:25:30;8.90;;;3.20;;
67675;SDS011;54456;48.436;10.028;2023-11-21T10:27:00;8.30;;;3.08;;
67675;SDS011;54456;48.436;10.028;2023-11-21T10:28:35;7.93;;;2.72;;
67675;SDS011;54456;48.436;10.028;2023-11-21T10:30:07;7.13;;;2.70;;
67675;SDS011;54456;48.436;10.028;2023-11-21T10:31:42;6.72;;;3.17;;
67675;SDS011;54456;48.436;10.028;2023-11-21T10:33:13;6.75;;;2.22;;
67675;SDS011;54456;48.436;10.028;2023-11-21T10:34:55;6.13;;;2.30;;
67675;SDS011;54456;48.436;10.028;2023-11-21T10:36:26;6.80;;;2.42;;
67675;SDS011;54456;48.436;10.028;2023-11-21T10:37:59;5.15;;;1.73;;
67675;SDS011;54456;48.436;10.028;2023-11-21T10:39:30;5.65;;;2.10;;
67675;SDS011;54456;48.436;10.028;2023-11-21T10:41:01;7.47;;;2.33;;
67675;SDS011;54456;48.436;10.028;2023-11-21T10:42:34;6.05;;;1.83;;
67675;SDS011;54456;48.436;10.028;2023-11-21T10:44:05;5.13;;;1.88;;
67675;SDS011;54456;48.436;10.028;2023-11-21T10:45:37;4.97;;;1.70;;
67675;SDS011;54456;48.436;10.028;2023-11-21T10:47:08;4.90;;;1.65;;
67675;SDS011;54456;48.436;10.028;2023-11-21T10:48:38;5.80;;;1.98;;
67675;SDS011;54456;48.436;10.028;2023-11-21T10:50:12;5.45;;;2.20;;
67675;SDS011;54456;48.436;10.028;2023-11-21T10:51:43;7.57;;;1.88;;
67675;SDS011;54456;48.436;10.028;2023-11-21T10:53:14;4.30;;;1.50;;
67675;SDS011;54456;48.436;10.028;2023-11-21T10:54:44;5.63;;;1.98;;
67675;SDS011;54456;48.436;10.028;2023-11-21T10:56:15;4.93;;;1.92;;
67675;SDS011;54456;48.436;10.028;2023-11-21T10:57:48;5.22;;;1.80;;
67675;SDS011;54456;48.436;10.028;2023-11-21T10:59:19;4.78;;;1.77;;
67675;SDS011;54456;48.436;10.028;2023-11-21T11:00:51;3.55;;;1.63;;
67675;SDS011;54456;48.436;10.028;2023-11-21T11:02:24;4.75;;;1.42;;
67675;SDS011;54456;48.436;10.028;2023-11-21T11:03:57;4.50;;;1.58;;
67675;SDS011;54456;48.436;10.028;2023-11-21T11:05:29;5.75;;;1.67;;
67675;SDS011;54456;48.436;10.028;2023-11-21T11:07:02;4.15;;;1.58;;
67675;SDS011;54456;48.436;10.028;2023-11-21T11:08:33;4.28;;;1.70;;
67675;SDS011;54456;48.436;10.028;2023-11-21T11:10:04;3.47;;;1.42;;
67675;SDS011;54456;48.436;10.028;2023-11-21T11:11:39;3.22;;;1.50;;
67675;SDS011;54456;48.436;10.028;2023-11-21T11:13:14;3.85;;;1.80;;
67675;SDS011;54456;48.436;10.028;2023-11-21T11:14:45;4.22;;;1.42;;
67675;SDS011;54456;48.436;10.028;2023-11-21T11:16:17;2.70;;;1.35;;
67675;SDS011;54456;48.436;10.028;2023-11-21T11:17:48;3.40;;;1.30;;
67675;SDS011;54456;48.436;10.028;2023-11-21T11:19:19;3.72;;;1.33;;
67675;SDS011;54456;48.436;10.028;2023-11-21T11:20:49;2.72;;;1.25;;
67675;SDS011;54456;48.436;10.028;2023-11-21T11:22:30;2.17;;;1.10;;
67675;SDS011;54456;48.436;10.028;2023-11-21T11:26:07;1.50;;;0.98;;
67675;SDS011;54456;48.436;10.028;2023-11-21T11:34:59;1.98;;;1.00;;
67675;SDS011;54456;48.436;10.028;2023-11-21T11:36:36;2.50;;;1.13;;
67675;SDS011;54456;48.436;10.028;2023-11-21T11:38:11;2.30;;;1.10;;
67675;SDS011;54456;48.436;10.028;2023-11-21T11:39:42;3.95;;;1.40;;
67675;SDS011;54456;48.436;10.028;2023-11-21T11:41:13;2.50;;;1.08;;
67675;SDS011;54456;48.436;10.028;2023-11-21T11:42:58;2.47;;;1.30;;
67675;SDS011;54456;48.436;10.028;2023-11-21T11:46:17;3.05;;;1.60;;
67675;SDS011;54456;48.436;10.028;2023-11-21T11:47:48;2.05;;;1.02;;
67675;SDS011;54456;48.436;10.028;2023-11-21T11:49:29;3.92;;;1.30;;
67675;SDS011;54456;48.436;10.028;2023-11-21T11:51:12;4.45;;;1.10;;
67675;SDS011;54456;48.436;10.028;2023-11-21T11:52:51;5.05;;;1.67;;
67675;SDS011;54456;48.436;10.028;2023-11-21T11:54:45;3.92;;;1.50;;
67675;SDS011;54456;48.436;10.028;2023-11-21T11:56:25;3.15;;;1.33;;
67675;SDS011;54456;48.436;10.028;2023-11-21T11:58:00;3.42;;;1.30;;
67675;SDS011;54456;48.436;10.028;2023-11-21T11:59:30;3.13;;;1.30;;
67675;SDS011;54456;48.436;10.028;2023-11-21T12:01:51;2.08;;;1.20;;
67675;SDS011;54456;48.436;10.028;2023-11-21T12:03:21;2.53;;;1.07;;
67675;SDS011;54456;48.436;10.028;2023-11-21T12:04:55;3.88;;;1.20;;
67675;SDS011;54456;48.436;10.028;2023-11-21T12:06:35;3.13;;;1.30;;
67675;SDS011;54456;48.436;10.028;2023-11-21T12:08:06;2.95;;;1.48;;
67675;SDS011;54456;48.436;10.028;2023-11-21T12:09:37;2.50;;;0.93;;
67675;SDS011;54456;48.436;10.028;2023-11-21T12:11:07;2.03;;;1.03;;
67675;SDS011;54456;48.436;10.028;2023-11-21T12:12:37;4.82;;;2.53;;
